Time;durP1;ratioP1;P1;durP2;ratioP2;P2;SDS_P1;SDS_P2;PMS_P1;PMS_P2;Temp;Humidity;BMP_temperature;BMP_pressure;BME280_temperature;BME280_humidity;BME280_pressure;Samples;Min_cycle;Max_cycle;Signal;HPM_P1;HPM_P2
2021/10/10 00:00:57;;;;;;;32.33;16.10;;;;;;;-2.22;84.39;94357.89;1794341;78;21595;-82
2021/10/10 00:03:24;;;;;;;34.13;15.68;;;;;;;-2.22;84.22;94357.89;1786786;78;21105;-81
2021/10/10 00:05:50;;;;;;;26.42;15.03;;;;;;;-2.24;84.11;94355.52;1795388;77;21064;-83
2021/10/10 00:08:17;;;;;;;30.15;14.45;;;;;;;-2.25;84.17;94359.83;1802508;78;21121;-83
2021/10/10 00:10:43;;;;;;;28.73;14.53;;;;;;;-2.26;84.05;94359.55;1780231;79;21477;-83
2021/10/10 00:13:10;;;;;;;26.77;13.25;;;;;;;-2.29;84.11;94362.83;1812133;77;21033;-83
2021/10/10 00:15:36;;;;;;;30.15;14.70;;;;;;;-2.30;84.20;94359.89;1757987;78;21074;-83
2021/10/10 00:18:03;;;;;;;32.47;15.47;;;;;;;-2.31;84.39;94355.11;1740656;80;21077;-83
2021/10/10 00:20:30;;;;;;;35.63;18.45;;;;;;;-2.29;84.33;94359.61;1788226;79;21643;-82
2021/10/10 00:22:56;;;;;;;45.70;23.62;;;;;;;-2.27;83.98;94356.64;1759589;80;21987;-82
2021/10/10 00:25:22;;;;;;;51.20;26.25;;;;;;;-2.30;83.67;94351.34;1806196;78;21583;-82
2021/10/10 00:27:49;;;;;;;46.13;23.85;;;;;;;-2.38;83.73;94348.02;1799965;78;21052;-83
2021/10/10 00:30:17;;;;;;;59.90;25.83;;;;;;;-2.42;84.14;94348.36;1797823;77;21170;-82
2021/10/10 00:32:43;;;;;;;69.45;32.35;;;;;;;-2.41;84.38;94338.48;1816253;77;21221;-82
2021/10/10 00:35:10;;;;;;;68.22;33.35;;;;;;;-2.43;84.18;94335.34;1790780;79;21608;-82
2021/10/10 00:37:36;;;;;;;76.23;39.87;;;;;;;-2.45;83.66;94339.61;1777715;79;21042;-81
2021/10/10 00:40:03;;;;;;;87.12;41.08;;;;;;;-2.50;83.09;94340.48;1794080;78;21008;-82
2021/10/10 00:42:31;;;;;;;42.03;20.43;;;;;;;-2.61;83.09;94347.59;1807954;78;21073;-83
2021/10/10 00:44:57;;;;;;;34.38;18.20;;;;;;;-2.70;83.71;94348.25;1805230;78;21653;-82
2021/10/10 00:47:23;;;;;;;36.33;18.80;;;;;;;-2.75;84.39;94344.31;1787663;79;21042;-82
2021/10/10 00:49:50;;;;;;;35.90;16.53;;;;;;;-2.77;84.72;94343.83;1802918;78;21605;-82
2021/10/10 00:52:16;;;;;;;26.67;13.10;;;;;;;-2.74;85.17;94342.47;1775706;78;21063;-83
2021/10/10 00:54:48;;;;;;;23.43;12.13;;;;;;;-2.67;85.31;94346.89;1784566;79;21081;-83
2021/10/10 00:57:15;;;;;;;17.07;9.43;;;;;;;-2.58;85.04;94339.03;1790723;78;21112;-83
2021/10/10 00:59:46;;;;;;;19.03;8.83;;;;;;;-2.56;84.69;94341.64;1758245;79;21029;-82
2021/10/10 01:02:15;;;;;;;14.70;8.97;;;;;;;-2.56;84.84;94338.19;1754450;80;21116;-83
2021/10/10 01:04:42;;;;;;;14.00;8.20;;;;;;;-2.52;85.12;94342.66;1807996;78;21069;-82
2021/10/10 01:07:09;;;;;;;17.37;8.50;;;;;;;-2.47;85.09;94339.91;1816833;76;21085;-82
2021/10/10 01:09:36;;;;;;;17.83;8.80;;;;;;;-2.45;84.86;94342.27;1809745;77;21122;-81
2021/10/10 01:12:04;;;;;;;16.87;9.40;;;;;;;-2.46;84.82;94337.49;1767571;77;20951;-81
2021/10/10 01:14:33;;;;;;;22.90;9.83;;;;;;;-2.47;84.59;94337.25;1786857;78;21033;-81
2021/10/10 01:17:00;;;;;;;25.27;12.33;;;;;;;-2.43;84.49;94346.00;1783991;78;21117;-81
2021/10/10 01:19:31;;;;;;;21.77;12.75;;;;;;;-2.46;84.08;94333.50;1809893;77;21504;-82
2021/10/10 01:21:59;;;;;;;12.63;7.47;;;;;;;-2.51;84.04;94335.47;1751287;79;21504;-81
2021/10/10 01:24:26;;;;;;;17.30;8.73;;;;;;;-2.54;84.22;94329.38;1757190;79;21156;-81
2021/10/10 01:26:52;;;;;;;13.78;6.17;;;;;;;-2.61;84.23;94327.63;1787032;78;21053;-81
2021/10/10 01:29:19;;;;;;;14.93;6.80;;;;;;;-2.73;84.60;94327.52;1765864;79;21033;-81
2021/10/10 01:31:45;;;;;;;12.50;6.63;;;;;;;-2.85;84.92;94332.50;1800241;77;21085;-81
2021/10/10 01:34:12;;;;;;;13.43;6.87;;;;;;;-2.90;85.40;94331.23;1748829;78;21605;-82
2021/10/10 01:36:39;;;;;;;11.77;6.70;;;;;;;-2.87;86.03;94329.33;1801243;78;21022;-82
2021/10/10 01:39:05;;;;;;;16.23;7.60;;;;;;;-2.78;86.07;94328.16;1795087;79;21195;-82
2021/10/10 01:41:33;;;;;;;19.23;8.47;;;;;;;-2.70;85.95;94322.96;1784238;78;21034;-82
2021/10/10 01:44:00;;;;;;;17.70;7.10;;;;;;;-2.63;85.71;94323.11;1793518;78;21006;-82
2021/10/10 01:46:26;;;;;;;15.23;8.53;;;;;;;-2.58;85.21;94321.72;1791413;78;21129;-81
2021/10/10 01:48:53;;;;;;;14.10;6.57;;;;;;;-2.59;85.05;94324.93;1771527;79;21009;-81
2021/10/10 01:51:19;;;;;;;17.67;7.90;;;;;;;-2.58;84.70;94325.72;1782828;79;21649;-81
2021/10/10 01:53:45;;;;;;;11.60;6.57;;;;;;;-2.64;84.47;94324.20;1792128;78;21545;-82
2021/10/10 01:56:12;;;;;;;12.97;6.20;;;;;;;-2.70;84.52;94328.83;1795062;77;21036;-81
2021/10/10 01:58:38;;;;;;;14.58;6.05;;;;;;;-2.76;84.82;94329.43;1811416;77;21899;-83
2021/10/10 02:01:05;;;;;;;15.33;5.83;;;;;;;-2.84;85.02;94319.98;1811980;77;21074;-81
2021/10/10 02:03:32;;;;;;;11.90;6.20;;;;;;;-2.90;85.40;94321.91;1807439;77;21113;-81
2021/10/10 02:05:59;;;;;;;12.20;6.03;;;;;;;-2.90;85.85;94323.79;1790639;78;21046;-81
2021/10/10 02:08:26;;;;;;;15.47;7.80;;;;;;;-2.85;85.81;94316.53;1826281;77;21046;-81
2021/10/10 02:10:53;;;;;;;12.93;7.93;;;;;;;-2.79;85.51;94318.56;1809250;77;21719;-81
2021/10/10 02:13:20;;;;;;;19.10;8.63;;;;;;;-2.76;85.15;94316.12;1810694;77;21057;-80
2021/10/10 02:15:46;;;;;;;15.27;8.70;;;;;;;-2.77;84.68;94317.75;1818178;76;21061;-80
2021/10/10 02:18:13;;;;;;;16.33;7.53;;;;;;;-2.80;84.61;94317.78;1824870;76;21060;-81
2021/10/10 02:20:40;;;;;;;17.37;6.67;;;;;;;-2.84;84.68;94322.64;1801878;78;21072;-82
2021/10/10 02:23:07;;;;;;;12.87;6.97;;;;;;;-2.81;84.96;94323.41;1743517;79;21132;-81
2021/10/10 02:25:35;;;;;;;14.37;7.27;;;;;;;-2.79;84.97;94318.56;1783366;78;21065;-81
2021/10/10 02:28:01;;;;;;;15.97;9.07;;;;;;;-2.76;84.65;94316.12;1797640;77;21058;-81
2021/10/10 02:30:28;;;;;;;16.73;9.00;;;;;;;-2.79;84.50;94312.70;1755259;79;20984;-81
2021/10/10 02:32:54;;;;;;;12.10;6.43;;;;;;;-2.77;84.53;94312.42;1801392;77;21096;-80
2021/10/10 02:35:21;;;;;;;13.72;6.85;;;;;;;-2.79;84.33;94318.56;1822257;77;21778;-80
2021/10/10 02:37:49;;;;;;;13.20;5.70;;;;;;;-2.87;84.47;94313.36;1826519;77;21587;-81
2021/10/10 02:40:15;;;;;;;10.87;5.60;;;;;;;-2.92;84.65;94304.67;1798050;77;21786;-81
2021/10/10 02:42:43;;;;;;;9.87;5.60;;;;;;;-2.96;84.95;94305.78;1785130;77;21084;-81
2021/10/10 02:45:10;;;;;;;15.20;7.40;;;;;;;-2.94;84.98;94311.05;1828217;77;21041;-81
2021/10/10 02:47:37;;;;;;;11.73;5.70;;;;;;;-2.92;85.02;94309.45;1828481;77;21122;-81
2021/10/10 02:50:05;;;;;;;11.00;5.77;;;;;;;-2.87;84.73;94309.91;1807023;77;21568;-81
2021/10/10 02:52:31;;;;;;;10.20;5.53;;;;;;;-2.92;84.37;94303.34;1770863;78;21057;-79
2021/10/10 02:54:59;;;;;;;12.90;6.27;;;;;;;-3.02;84.48;94304.27;1783803;77;20986;-80
2021/10/10 02:57:26;;;;;;;15.23;5.87;;;;;;;-3.08;84.99;94302.77;1828603;77;21006;-80
2021/10/10 02:59:52;;;;;;;13.13;5.53;;;;;;;-3.02;85.52;94308.25;1766759;78;21691;-80
2021/10/10 03:02:18;;;;;;;12.10;6.07;;;;;;;-2.96;85.43;94301.25;1793552;77;21018;-80
2021/10/10 03:04:45;;;;;;;11.30;5.93;;;;;;;-2.94;85.25;94302.28;1781604;77;21038;-80
2021/10/10 03:07:12;;;;;;;10.30;5.70;;;;;;;-2.99;85.24;94303.15;1767913;78;21059;-80
2021/10/10 03:09:38;;;;;;;17.77;8.17;;;;;;;-3.03;84.89;94296.83;1762771;77;21187;-80
2021/10/10 03:12:05;;;;;;;41.53;19.33;;;;;;;-3.09;84.51;94295.84;1834669;77;21528;-81
2021/10/10 03:14:31;;;;;;;16.97;7.67;;;;;;;-3.12;84.59;94295.09;1830612;77;21084;-80
2021/10/10 03:16:58;;;;;;;14.50;6.40;;;;;;;-3.13;84.49;94300.16;1792754;77;20999;-81
2021/10/10 03:19:24;;;;;;;12.80;6.23;;;;;;;-3.19;84.66;94296.80;1760750;79;21062;-80
2021/10/10 03:21:50;;;;;;;14.77;7.30;;;;;;;-3.29;84.97;94287.62;1758912;79;21074;-80
2021/10/10 03:24:18;;;;;;;13.73;5.47;;;;;;;-3.34;85.36;94291.69;1747268;80;21130;-80
2021/10/10 03:26:46;;;;;;;13.07;5.50;;;;;;;-3.37;85.83;94292.25;1734001;80;21041;-80
2021/10/10 03:29:13;;;;;;;9.63;4.70;;;;;;;-3.38;86.13;94290.13;1815015;77;21579;-80
2021/10/10 03:31:39;;;;;;;12.67;5.33;;;;;;;-3.39;86.20;94287.20;1753497;79;21566;-81
2021/10/10 03:34:06;;;;;;;11.10;5.90;;;;;;;-3.44;86.15;94284.08;1760005;77;21048;-79
2021/10/10 03:36:33;;;;;;;10.13;5.37;;;;;;;-3.46;86.40;94284.09;1791973;79;21136;-80
2021/10/10 03:38:59;;;;;;;11.90;5.87;;;;;;;-3.45;86.74;94281.17;1820308;77;21116;-80
2021/10/10 03:41:25;;;;;;;9.00;4.90;;;;;;;-3.42;86.85;94281.15;1835176;77;21072;-80
2021/10/10 03:43:52;;;;;;;11.47;5.80;;;;;;;-3.37;86.78;94274.42;1813049;77;21097;-80
2021/10/10 03:46:18;;;;;;;11.80;5.80;;;;;;;-3.31;86.33;94278.61;1801109;79;21092;-81
2021/10/10 03:48:45;;;;;;;11.07;5.33;;;;;;;-3.31;86.40;94275.13;1806443;78;21088;-80
2021/10/10 03:51:11;;;;;;;10.87;5.77;;;;;;;-3.33;86.67;94274.64;1744650;81;21016;-79
2021/10/10 03:56:22;;;;;;;11.95;5.58;;;;;;;-3.32;86.70;94269.02;1791118;78;21052;-80
2021/10/10 03:58:48;;;;;;;9.13;5.27;;;;;;;-3.30;86.71;94264.22;1775486;78;21164;-81
2021/10/10 04:01:15;;;;;;;10.03;5.23;;;;;;;-3.31;86.48;94265.31;1759688;79;21668;-80
2021/10/10 04:03:43;;;;;;;13.47;5.10;;;;;;;-3.34;86.58;94265.88;1753998;79;21099;-80
2021/10/10 04:06:11;;;;;;;11.03;5.60;;;;;;;-3.30;86.39;94262.89;1723540;80;21070;-81
2021/10/10 04:08:43;;;;;;;10.93;5.00;;;;;;;-3.30;86.11;94260.78;1762750;79;20985;-80
2021/10/10 04:11:06;;;;;;;14.50;5.13;;;;;;;-3.31;86.14;94263.16;1801197;77;21054;-79
2021/10/10 04:13:32;;;;;;;8.03;5.90;;;;;;;-3.31;86.24;94261.83;1823566;77;21088;-80
2021/10/10 04:15:59;;;;;;;13.13;5.77;;;;;;;-3.30;86.21;94260.23;1790305;79;21295;-80
2021/10/10 04:18:25;;;;;;;12.60;5.73;;;;;;;-3.23;86.31;94260.67;1792857;78;21124;-81
2021/10/10 04:20:51;;;;;;;10.73;5.90;;;;;;;-3.16;85.94;94260.28;1788543;78;21524;-81
2021/10/10 04:23:18;;;;;;;13.57;6.40;;;;;;;-3.15;85.37;94267.20;1781892;78;21023;-81
2021/10/10 04:25:46;;;;;;;13.57;6.03;;;;;;;-3.17;84.82;94266.14;1815878;76;21608;-81
2021/10/10 04:28:13;;;;;;;12.37;5.60;;;;;;;-3.27;84.78;94260.99;1824585;77;21384;-81
2021/10/10 04:30:40;;;;;;;13.10;5.83;;;;;;;-3.30;85.11;94263.44;1830555;77;21041;-81
2021/10/10 04:33:08;;;;;;;12.80;6.03;;;;;;;-3.28;85.14;94268.70;1798610;78;21069;-81
2021/10/10 04:35:35;;;;;;;12.63;5.77;;;;;;;-3.24;85.19;94267.05;1786856;77;21071;-82
2021/10/10 04:38:01;;;;;;;13.70;5.83;;;;;;;-3.23;84.95;94262.54;1808877;76;21175;-81
2021/10/10 04:40:28;;;;;;;8.70;5.80;;;;;;;-3.25;84.95;94265.47;1795095;77;21034;-82
2021/10/10 04:42:56;;;;;;;11.40;5.87;;;;;;;-3.32;84.90;94270.35;1791583;78;21644;-81
2021/10/10 04:45:23;;;;;;;9.93;5.43;;;;;;;-3.40;85.18;94265.69;1811648;77;21050;-82
2021/10/10 04:47:49;;;;;;;11.40;4.67;;;;;;;-3.43;85.62;94268.91;1838452;76;21066;-81
2021/10/10 04:50:15;;;;;;;10.67;5.37;;;;;;;-3.37;86.04;94274.42;1824638;76;21096;-82
2021/10/10 04:52:42;;;;;;;9.37;5.73;;;;;;;-3.31;85.89;94271.95;1802693;78;21013;-81
2021/10/10 04:55:08;;;;;;;12.33;5.80;;;;;;;-3.30;85.72;94270.88;1799867;77;21037;-82
2021/10/10 04:57:35;;;;;;;8.13;4.63;;;;;;;-3.28;85.89;94271.36;1837346;76;21598;-82
2021/10/10 05:00:01;;;;;;;9.70;5.87;;;;;;;-3.29;85.84;94267.67;1831387;75;21022;-82
2021/10/10 05:02:28;;;;;;;11.50;5.20;;;;;;;-3.30;86.16;94276.73;1808705;77;21097;-82
2021/10/10 05:04:54;;;;;;;13.57;5.43;;;;;;;-3.24;86.50;94273.69;1775957;78;21065;-82
2021/10/10 05:07:21;;;;;;;14.00;6.23;;;;;;;-3.19;86.25;94276.84;1801723;77;21796;-80
2021/10/10 05:09:48;;;;;;;28.13;15.93;;;;;;;-3.20;86.09;94264.60;1800590;77;21281;-82
2021/10/10 05:12:15;;;;;;;16.07;8.37;;;;;;;-3.21;85.90;94270.47;1812089;77;21225;-81
2021/10/10 05:14:42;;;;;;;15.27;6.70;;;;;;;-3.16;85.27;94273.59;1807318;77;21088;-81
2021/10/10 05:17:09;;;;;;;16.43;8.13;;;;;;;-3.17;84.86;94269.35;1787430;77;21604;-82
2021/10/10 05:19:35;;;;;;;13.73;5.83;;;;;;;-3.20;85.06;94272.06;1779232;77;21015;-82
2021/10/10 05:22:02;;;;;;;8.70;5.00;;;;;;;-3.14;85.07;94270.66;1810974;78;21507;-82
2021/10/10 05:24:28;;;;;;;11.37;5.83;;;;;;;-3.09;85.17;94266.03;1810542;78;21053;-82
2021/10/10 05:26:55;;;;;;;9.80;6.13;;;;;;;-2.94;85.80;94269.02;1806567;77;22097;-83
2021/10/10 05:29:21;;;;;;;8.87;6.40;;;;;;;-2.51;86.90;94266.22;1803666;78;21049;-83
2021/10/10 05:31:48;;;;;;;11.25;7.12;;;;;;;-1.80;87.30;94264.93;1758969;79;21061;-84
2021/10/10 05:34:14;;;;;;;16.00;8.55;;;;;;;-1.01;86.87;94265.95;1760153;79;21541;-84
2021/10/10 05:36:40;;;;;;;14.13;7.50;;;;;;;-0.16;86.02;94265.25;1789168;78;21061;-83
2021/10/10 05:39:07;;;;;;;12.87;7.23;;;;;;;0.71;82.38;94263.15;1780101;78;21138;-83
2021/10/10 05:41:34;;;;;;;11.22;6.35;;;;;;;1.42;79.94;94260.73;1805659;77;21085;-84
2021/10/10 05:44:00;;;;;;;13.18;8.20;;;;;;;2.07;76.39;94258.87;1786944;77;21073;-84
2021/10/10 05:46:27;;;;;;;15.68;12.00;;;;;;;2.37;73.25;94259.70;1778001;78;21089;-84
2021/10/10 05:48:53;;;;;;;21.70;16.57;;;;;;;2.56;71.98;94260.11;1756254;80;21121;-84
2021/10/10 05:51:20;;;;;;;17.62;14.03;;;;;;;2.74;70.32;94262.13;1746707;79;21879;-85
2021/10/10 05:53:46;;;;;;;17.23;11.75;;;;;;;2.89;69.49;94253.50;1746503;80;21043;-84
2021/10/10 05:56:15;;;;;;;12.88;9.85;;;;;;;3.04;68.81;94239.27;1753828;80;21053;-85
2021/10/10 05:58:44;;;;;;;19.75;16.42;;;;;;;3.12;67.24;94251.84;1756657;80;21141;-85
2021/10/10 06:01:11;;;;;;;21.27;14.30;;;;;;;3.11;66.47;94255.09;1758670;80;21034;-86
2021/10/10 06:03:38;;;;;;;15.63;11.28;;;;;;;3.07;65.77;94254.74;1778385;79;21145;-85
2021/10/10 06:06:04;;;;;;;14.98;10.25;;;;;;;2.88;65.79;94247.91;1808986;77;21065;-85
2021/10/10 06:08:32;;;;;;;13.58;8.80;;;;;;;2.74;66.92;94258.66;1806955;76;21064;-85
2021/10/10 06:10:58;;;;;;;16.32;10.63;;;;;;;2.75;67.55;94249.52;1783451;77;21066;-84
2021/10/10 06:13:25;;;;;;;24.35;13.72;;;;;;;2.76;67.50;94248.39;1753884;78;21087;-86
2021/10/10 06:15:54;;;;;;;22.45;13.25;;;;;;;2.57;67.68;94253.63;1824735;77;21098;-85
2021/10/10 06:18:21;;;;;;;24.60;16.02;;;;;;;2.43;69.16;94243.10;1805642;77;21413;-86
2021/10/10 06:20:47;;;;;;;23.57;16.95;;;;;;;2.67;69.40;94245.20;1815157;77;21017;-87
2021/10/10 06:23:14;;;;;;;28.87;16.90;;;;;;;2.82;68.99;94241.70;1809244;77;21043;-85
2021/10/10 06:25:41;;;;;;;29.70;18.30;;;;;;;2.76;68.44;94247.83;1791532;77;21050;-85
2021/10/10 06:28:07;;;;;;;25.50;14.60;;;;;;;2.68;69.33;94244.09;1784560;79;21077;-86
2021/10/10 06:30:34;;;;;;;30.32;18.95;;;;;;;2.64;69.05;94239.70;1797481;77;21021;-86
2021/10/10 06:33:00;;;;;;;35.17;20.45;;;;;;;2.64;69.05;94239.70;1820040;78;21768;-85
2021/10/10 06:35:26;;;;;;;31.20;19.87;;;;;;;2.89;70.50;94238.73;1809734;78;21088;-85
2021/10/10 06:37:53;;;;;;;33.28;19.23;;;;;;;2.89;70.50;94238.73;1821368;77;21169;-85
2021/10/10 06:40:20;;;;;;;23.20;14.05;;;;;;;3.24;69.67;94237.16;1807765;77;21102;-86
2021/10/10 06:42:46;;;;;;;17.07;10.45;;;;;;;3.24;69.67;94237.16;1751316;79;21155;-84
2021/10/10 06:45:13;;;;;;;17.25;10.45;;;;;;;3.44;68.53;94232.88;1802140;78;21113;-83
2021/10/10 06:47:40;;;;;;;33.70;20.12;;;;;;;3.58;67.09;94234.73;1797064;78;21050;-86
2021/10/10 06:50:07;;;;;;;27.35;16.48;;;;;;;3.55;67.36;94228.66;1787910;78;21568;-86
2021/10/10 06:52:34;;;;;;;21.25;14.18;;;;;;;3.45;67.71;94229.63;1777306;79;21066;-86
2021/10/10 06:55:01;;;;;;;18.82;12.45;;;;;;;3.33;68.01;94231.14;1728648;79;21119;-86
2021/10/10 06:57:31;;;;;;;17.35;11.25;;;;;;;3.29;68.52;94227.54;1748676;79;21085;-86
2021/10/10 06:59:59;;;;;;;16.15;8.98;;;;;;;3.43;68.97;94229.18;1748071;80;21102;-85
2021/10/10 07:02:28;;;;;;;15.72;7.70;;;;;;;3.55;68.08;94226.53;1771493;78;21036;-87
2021/10/10 07:04:56;;;;;;;13.30;7.33;;;;;;;3.61;66.43;94222.50;1782760;78;21576;-85
2021/10/10 07:07:23;;;;;;;23.75;14.13;;;;;;;3.66;66.24;94222.31;1800737;77;21101;-85
2021/10/10 07:09:50;;;;;;;23.77;13.30;;;;;;;3.78;66.98;94213.48;1786828;77;21127;-87
2021/10/10 07:12:16;;;;;;;21.62;13.05;;;;;;;3.78;66.98;94213.48;1784596;77;21439;-86
2021/10/10 07:14:43;;;;;;;15.40;9.35;;;;;;;3.84;66.45;94223.72;1772634;77;22004;-86
2021/10/10 07:17:10;;;;;;;9.53;6.35;;;;;;;3.91;65.48;94220.45;1799235;77;21731;-85
2021/10/10 07:22:16;;;;;;;8.68;5.17;;;;;;;3.88;62.61;94219.80;1763233;79;21619;-87
2021/10/10 07:27:26;;;;;;;14.80;6.15;;;;;;;3.86;61.21;94213.95;1790112;77;21406;-85
2021/10/10 07:29:53;;;;;;;14.68;6.80;;;;;;;3.95;61.22;94207.13;1766595;77;21587;-86
2021/10/10 07:32:20;;;;;;;12.78;5.80;;;;;;;4.11;60.76;94212.89;1788459;77;21065;-85
2021/10/10 07:34:46;;;;;;;6.95;4.40;;;;;;;4.24;60.07;94210.98;1818235;77;21037;-86
2021/10/10 07:37:13;;;;;;;11.15;5.37;;;;;;;4.30;58.89;94207.52;1817597;77;21058;-86
2021/10/10 07:39:40;;;;;;;10.10;5.65;;;;;;;4.35;58.49;94210.77;1820269;77;21014;-85
2021/10/10 07:42:07;;;;;;;13.72;7.80;;;;;;;4.59;59.29;94208.65;1818974;77;21453;-86
2021/10/10 07:44:34;;;;;;;16.05;8.43;;;;;;;4.92;58.79;94207.70;1820385;77;21050;-85
2021/10/10 07:47:28;;;;;;;16.42;9.70;;;;;;;5.16;58.19;94206.09;1772163;77;21789;-85
2021/10/10 07:49:45;;;;;;;18.82;8.58;;;;;;;5.28;58.32;94205.48;1803908;77;21096;-87
2021/10/10 07:52:12;;;;;;;19.52;10.75;;;;;;;5.45;56.60;94199.00;1783705;77;21061;-86
2021/10/10 07:54:39;;;;;;;15.08;8.63;;;;;;;5.59;56.38;94204.02;1763556;78;21195;-85
2021/10/10 07:57:05;;;;;;;16.52;8.63;;;;;;;5.67;56.48;94206.34;1779872;77;21112;-86
2021/10/10 07:59:33;;;;;;;15.53;8.68;;;;;;;5.70;56.06;94194.87;1813673;77;21040;-84
2021/10/10 08:02:00;;;;;;;14.73;8.55;;;;;;;5.75;55.82;94196.73;1749074;79;21061;-86
2021/10/10 08:04:28;;;;;;;16.20;9.08;;;;;;;5.80;55.87;94199.77;1804290;77;21123;-84
2021/10/10 08:06:56;;;;;;;16.95;9.53;;;;;;;5.84;55.87;94199.30;1782428;76;21126;-84
2021/10/10 08:09:23;;;;;;;16.37;10.23;;;;;;;5.93;56.36;94199.94;1785705;77;21068;-86
2021/10/10 08:11:50;;;;;;;19.67;11.03;;;;;;;6.00;56.01;94199.34;1739540;80;21565;-84
2021/10/10 08:14:19;;;;;;;19.55;10.63;;;;;;;6.08;55.66;94197.05;1756337;79;21409;-87
2021/10/10 08:16:48;;;;;;;19.87;11.40;;;;;;;6.18;55.30;94195.75;1666550;82;21078;-86
2021/10/10 08:19:17;;;;;;;18.27;10.20;;;;;;;6.27;54.58;94193.66;1791657;77;21784;-85
2021/10/10 08:21:46;;;;;;;18.20;9.80;;;;;;;6.38;54.38;94187.16;1782270;78;21135;-86
2021/10/10 08:24:18;;;;;;;28.30;9.48;;;;;;;6.52;53.78;94189.64;1783526;78;21154;-85
2021/10/10 08:26:45;;;;;;;14.70;8.05;;;;;;;6.68;53.19;94190.19;1786478;77;21041;-87
2021/10/10 08:29:15;;;;;;;20.43;9.18;;;;;;;6.79;52.24;94187.16;1775461;77;21073;-85
2021/10/10 08:31:43;;;;;;;15.58;7.85;;;;;;;6.86;52.71;94182.48;1812573;77;21071;-86
2021/10/10 08:34:10;;;;;;;14.05;7.67;;;;;;;6.94;52.48;94182.28;1796979;77;21046;-85
2021/10/10 08:36:36;;;;;;;18.15;7.92;;;;;;;7.03;52.34;94178.83;1813347;76;21647;-87
2021/10/10 08:39:02;;;;;;;14.85;7.47;;;;;;;7.15;52.17;94177.13;1802004;77;21282;-86
2021/10/10 08:41:34;;;;;;;13.95;7.37;;;;;;;7.27;52.27;94175.06;1800954;77;21022;-86
2021/10/10 08:43:58;;;;;;;13.95;7.40;;;;;;;7.38;51.63;94169.87;1808534;76;21124;-86
2021/10/10 08:46:26;;;;;;;19.70;6.80;;;;;;;7.50;51.65;94175.14;1785962;78;21140;-87
2021/10/10 08:48:52;;;;;;;13.90;7.17;;;;;;;7.63;51.15;94174.98;1812531;77;21349;-86
2021/10/10 08:51:20;;;;;;;13.60;6.72;;;;;;;7.70;49.60;94165.64;1813681;76;21701;-86
2021/10/10 08:53:47;;;;;;;10.13;6.15;;;;;;;7.79;49.05;94168.34;1823926;75;21383;-86
2021/10/10 08:56:14;;;;;;;24.98;8.30;;;;;;;7.90;49.00;94169.91;1841476;75;21397;-85
2021/10/10 08:58:45;;;;;;;15.00;6.65;;;;;;;8.04;49.09;94168.00;1836561;75;21084;-85
2021/10/10 09:01:25;;;;;;;10.45;5.67;;;;;;;8.14;47.80;94163.34;1836336;75;21193;-85
2021/10/10 09:03:49;;;;;;;15.80;6.50;;;;;;;8.24;48.19;94157.91;1833989;75;21776;-84
2021/10/10 09:06:16;;;;;;;12.50;6.53;;;;;;;8.33;47.83;94163.08;1836967;75;20982;-84
2021/10/10 09:08:43;;;;;;;15.13;7.15;;;;;;;8.39;47.65;94163.80;1836258;76;21243;-85
2021/10/10 09:11:10;;;;;;;13.32;6.58;;;;;;;8.43;47.87;94150.31;1838521;75;21091;-83
2021/10/10 09:13:40;;;;;;;9.40;5.50;;;;;;;8.53;47.08;94152.95;1805996;77;21105;-83
2021/10/10 09:16:08;;;;;;;12.15;6.20;;;;;;;8.59;47.37;94156.36;1803279;77;21061;-85
2021/10/10 09:18:39;;;;;;;17.10;10.00;;;;;;;8.65;46.22;94151.39;1799672;76;21623;-84
2021/10/10 09:21:20;;;;;;;19.32;7.50;;;;;;;8.68;46.53;94152.03;1830746;75;21116;-85
2021/10/10 09:23:49;;;;;;;21.45;6.53;;;;;;;8.69;46.47;94147.61;1812615;77;21129;-84
2021/10/10 09:26:17;;;;;;;14.50;7.10;;;;;;;8.74;45.68;94152.71;1838716;75;21025;-85
2021/10/10 09:28:44;;;;;;;14.98;6.30;;;;;;;8.82;45.95;94150.88;1827838;77;21002;-86
2021/10/10 09:31:11;;;;;;;10.48;5.80;;;;;;;8.87;44.76;94144.36;1809496;75;21640;-85
2021/10/10 09:33:51;;;;;;;12.13;5.60;;;;;;;8.90;45.12;94147.13;1792951;78;21070;-86
2021/10/10 09:36:21;;;;;;;13.45;5.62;;;;;;;8.94;45.07;94144.46;1761745;79;21476;-85
2021/10/10 09:39:07;;;;;;;19.60;5.47;;;;;;;8.98;44.88;94144.70;1785010;79;20992;-84
2021/10/10 09:44:21;;;;;;;10.58;5.05;;;;;;;9.06;43.84;94140.73;1754059;80;21458;-85
2021/10/10 09:46:49;;;;;;;16.80;6.58;;;;;;;9.09;45.13;94136.72;1765380;78;21137;-86
2021/10/10 09:49:33;;;;;;;11.73;6.47;;;;;;;9.16;45.10;94138.17;1827895;76;21064;-85
2021/10/10 09:52:13;;;;;;;9.53;5.67;;;;;;;9.22;44.79;94133.22;1841493;76;21052;-85
2021/10/10 09:54:55;;;;;;;31.90;15.32;;;;;;;9.25;44.22;94133.81;1824999;77;21104;-84
2021/10/10 09:57:23;;;;;;;14.58;7.62;;;;;;;9.26;44.49;94132.69;1815106;77;21624;-84
2021/10/10 09:59:50;;;;;;;11.95;6.45;;;;;;;9.31;44.57;94130.98;1823252;76;21589;-85
2021/10/10 10:02:16;;;;;;;14.00;6.08;;;;;;;9.36;44.54;94134.72;1817509;77;21480;-84
2021/10/10 10:04:49;;;;;;;15.32;5.53;;;;;;;9.38;44.38;94124.87;1817920;77;21061;-84
2021/10/10 10:07:18;;;;;;;10.45;5.75;;;;;;;9.35;44.19;94123.67;1821728;77;21038;-84
2021/10/10 10:09:50;;;;;;;14.90;6.50;;;;;;;9.32;43.83;94129.05;1821071;77;20951;-86
2021/10/10 10:12:14;;;;;;;13.85;6.80;;;;;;;9.28;44.44;94120.87;1773489;78;21086;-84
2021/10/10 10:14:40;;;;;;;9.58;5.67;;;;;;;9.31;43.88;94119.36;1751987;80;21548;-84
2021/10/10 10:17:07;;;;;;;10.10;6.10;;;;;;;9.30;43.86;94124.01;1823974;77;21092;-84
2021/10/10 10:19:33;;;;;;;16.30;6.10;;;;;;;9.28;44.35;94118.16;1823735;77;21006;-82
2021/10/10 10:22:00;;;;;;;9.35;5.42;;;;;;;9.31;44.80;94118.00;1825733;77;21088;-84
2021/10/10 10:24:30;;;;;;;15.90;7.45;;;;;;;9.39;45.06;94123.71;1823543;77;21321;-82
2021/10/10 10:26:57;;;;;;;21.02;7.03;;;;;;;9.44;44.05;94111.16;1831291;76;21053;-84
2021/10/10 10:29:26;;;;;;;14.90;6.92;;;;;;;9.48;44.51;94106.00;1818370;77;20987;-84
2021/10/10 10:31:55;;;;;;;14.87;6.42;;;;;;;9.55;45.00;94111.28;1754065;78;21054;-83
2021/10/10 10:34:28;;;;;;;10.72;6.40;;;;;;;9.63;44.80;94103.44;1731158;79;21587;-84
2021/10/10 10:37:08;;;;;;;13.22;6.85;;;;;;;9.68;44.37;94109.30;1718455;81;21080;-84
2021/10/10 10:39:44;;;;;;;14.00;7.25;;;;;;;9.71;44.14;94105.08;1751205;80;21031;-85
2021/10/10 10:42:14;;;;;;;15.20;6.67;;;;;;;9.72;44.20;94097.90;1763882;78;21117;-83
2021/10/10 10:44:44;;;;;;;10.78;6.17;;;;;;;9.77;44.15;94106.28;1783919;78;21570;-84
2021/10/10 10:47:16;;;;;;;13.32;6.97;;;;;;;9.84;44.14;94102.28;1810588;77;21039;-84
2021/10/10 10:50:04;;;;;;;14.83;5.72;;;;;;;9.85;43.07;94101.70;1779727;76;21654;-85
2021/10/10 10:52:39;;;;;;;14.78;6.05;;;;;;;9.89;43.12;94109.30;1792655;77;21094;-84
2021/10/10 10:55:22;;;;;;;14.35;7.10;;;;;;;9.93;42.17;94104.13;1780979;76;21157;-84
2021/10/10 10:58:15;;;;;;;12.95;6.17;;;;;;;9.88;42.43;94111.24;1796186;77;20994;-83
2021/10/10 11:01:04;;;;;;;15.98;7.17;;;;;;;9.86;43.05;94102.70;1762215;79;21087;-86
2021/10/10 11:03:34;;;;;;;10.30;6.10;;;;;;;9.93;43.26;94088.41;1742586;79;22553;-85
2021/10/10 11:08:34;;;;;;;22.73;7.28;;;;;;;10.08;42.26;94090.09;1791230;78;21469;-86
2021/10/10 11:11:15;;;;;;;13.53;5.80;;;;;;;10.10;42.25;94093.20;1767750;79;21465;-85
2021/10/10 11:13:59;;;;;;;13.68;5.37;;;;;;;10.16;41.67;94090.36;1761852;80;21112;-86
2021/10/10 11:16:35;;;;;;;10.88;5.47;;;;;;;10.21;41.86;94079.70;1801960;77;21125;-87
2021/10/10 11:19:07;;;;;;;9.95;4.87;;;;;;;10.27;42.09;94085.04;1805358;77;21081;-87
2021/10/10 11:21:37;;;;;;;9.63;5.53;;;;;;;10.30;40.41;94087.56;1782306;78;21061;-84
2021/10/10 11:26:37;;;;;;;10.70;5.12;;;;;;;10.27;41.09;94081.52;1810777;77;21070;-84
2021/10/10 11:29:09;;;;;;;10.82;5.62;;;;;;;10.30;40.58;94084.27;1829094;75;22257;-87
2021/10/10 11:31:38;;;;;;;11.12;6.17;;;;;;;10.25;40.57;94079.19;1804685;75;21053;-84
2021/10/10 11:34:08;;;;;;;12.58;6.08;;;;;;;10.20;41.11;94087.09;1808165;76;21109;-84
2021/10/10 11:36:57;;;;;;;9.68;5.90;;;;;;;10.23;40.69;94091.00;1827355;75;21162;-87
2021/10/10 11:39:28;;;;;;;14.65;6.95;;;;;;;10.17;40.73;94094.63;1818771;77;21078;-83
2021/10/10 11:42:07;;;;;;;11.22;6.03;;;;;;;10.14;41.43;94099.45;1812720;76;21145;-87
2021/10/10 11:44:41;;;;;;;12.47;7.80;;;;;;;10.12;41.83;94101.78;1798403;77;21102;-86
2021/10/10 11:47:24;;;;;;;10.33;5.60;;;;;;;10.09;41.77;94103.88;1747829;78;21087;-85